sensor_id;sensor_type;location;lat;lon;timestamp;P1;durP1;ratioP1;P2;durP2;ratioP2
46845;SDS011;33947;46.804;134.252;2023-05-21T00:00:31;14.70;;;3.90;;
46845;SDS011;33947;46.804;134.252;2023-05-21T00:03:35;16.80;;;4.97;;
46845;SDS011;33947;46.804;134.252;2023-05-21T00:06:44;17.80;;;3.38;;
46845;SDS011;33947;46.804;134.252;2023-05-21T00:09:48;12.45;;;3.17;;
46845;SDS011;33947;46.804;134.252;2023-05-21T00:12:52;16.88;;;3.80;;
46845;SDS011;33947;46.804;134.252;2023-05-21T00:15:56;23.85;;;6.25;;
46845;SDS011;33947;46.804;134.252;2023-05-21T00:19:01;19.27;;;5.40;;
46845;SDS011;33947;46.804;134.252;2023-05-21T00:22:05;21.40;;;4.18;;
46845;SDS011;33947;46.804;134.252;2023-05-21T00:25:10;17.23;;;4.70;;
46845;SDS011;33947;46.804;134.252;2023-05-21T00:28:15;20.52;;;3.40;;
46845;SDS011;33947;46.804;134.252;2023-05-21T00:31:19;42.72;;;5.88;;
46845;SDS011;33947;46.804;134.252;2023-05-21T00:34:24;15.52;;;3.85;;
46845;SDS011;33947;46.804;134.252;2023-05-21T00:37:28;30.00;;;4.22;;
46845;SDS011;33947;46.804;134.252;2023-05-21T00:40:36;28.48;;;6.57;;
46845;SDS011;33947;46.804;134.252;2023-05-21T00:43:43;35.42;;;6.70;;
46845;SDS011;33947;46.804;134.252;2023-05-21T00:46:49;39.67;;;7.07;;
46845;SDS011;33947;46.804;134.252;2023-05-21T00:49:55;74.10;;;9.60;;
46845;SDS011;33947;46.804;134.252;2023-05-21T00:53:00;45.77;;;6.80;;
46845;SDS011;33947;46.804;134.252;2023-05-21T00:56:05;46.50;;;6.55;;
46845;SDS011;33947;46.804;134.252;2023-05-21T00:59:10;46.17;;;6.93;;
46845;SDS011;33947;46.804;134.252;2023-05-21T01:02:14;47.00;;;5.97;;
46845;SDS011;33947;46.804;134.252;2023-05-21T01:05:20;78.05;;;10.15;;
46845;SDS011;33947;46.804;134.252;2023-05-21T01:08:25;86.25;;;10.48;;
46845;SDS011;33947;46.804;134.252;2023-05-21T01:14:45;83.93;;;8.98;;
46845;SDS011;33947;46.804;134.252;2023-05-21T01:17:51;72.25;;;9.95;;
46845;SDS011;33947;46.804;134.252;2023-05-21T01:20:55;78.25;;;9.52;;
46845;SDS011;33947;46.804;134.252;2023-05-21T01:23:59;77.70;;;9.00;;
46845;SDS011;33947;46.804;134.252;2023-05-21T01:27:07;74.53;;;9.50;;
46845;SDS011;33947;46.804;134.252;2023-05-21T01:30:12;171.38;;;15.88;;
46845;SDS011;33947;46.804;134.252;2023-05-21T01:33:21;173.60;;;20.77;;
46845;SDS011;33947;46.804;134.252;2023-05-21T01:36:33;182.93;;;20.88;;
46845;SDS011;33947;46.804;134.252;2023-05-21T01:39:46;181.15;;;17.85;;
46845;SDS011;33947;46.804;134.252;2023-05-21T01:42:57;205.23;;;19.90;;
46845;SDS011;33947;46.804;134.252;2023-05-21T01:46:02;178.38;;;19.67;;
46845;SDS011;33947;46.804;134.252;2023-05-21T01:49:08;228.02;;;24.27;;
46845;SDS011;33947;46.804;134.252;2023-05-21T01:52:13;196.27;;;20.05;;
46845;SDS011;33947;46.804;134.252;2023-05-21T01:55:19;185.40;;;18.60;;
46845;SDS011;33947;46.804;134.252;2023-05-21T01:58:27;222.40;;;22.98;;
46845;SDS011;33947;46.804;134.252;2023-05-21T02:01:32;252.18;;;23.20;;
46845;SDS011;33947;46.804;134.252;2023-05-21T02:04:37;221.85;;;22.35;;
46845;SDS011;33947;46.804;134.252;2023-05-21T02:07:44;216.75;;;24.33;;
46845;SDS011;33947;46.804;134.252;2023-05-21T02:10:48;227.30;;;21.80;;
46845;SDS011;33947;46.804;134.252;2023-05-21T02:13:53;203.82;;;19.55;;
46845;SDS011;33947;46.804;134.252;2023-05-21T02:16:59;225.27;;;24.58;;
46845;SDS011;33947;46.804;134.252;2023-05-21T02:20:04;190.82;;;20.05;;
46845;SDS011;33947;46.804;134.252;2023-05-21T02:23:19;205.57;;;19.33;;
46845;SDS011;33947;46.804;134.252;2023-05-21T02:26:23;175.13;;;21.88;;
46845;SDS011;33947;46.804;134.252;2023-05-21T02:29:27;175.18;;;19.13;;
46845;SDS011;33947;46.804;134.252;2023-05-21T02:32:32;182.77;;;18.75;;
46845;SDS011;33947;46.804;134.252;2023-05-21T02:35:37;211.38;;;22.08;;
46845;SDS011;33947;46.804;134.252;2023-05-21T02:38:41;193.55;;;19.90;;
46845;SDS011;33947;46.804;134.252;2023-05-21T02:41:45;181.82;;;18.98;;
46845;SDS011;33947;46.804;134.252;2023-05-21T02:44:49;197.10;;;21.25;;
46845;SDS011;33947;46.804;134.252;2023-05-21T02:47:56;216.65;;;22.95;;
46845;SDS011;33947;46.804;134.252;2023-05-21T02:51:21;182.00;;;19.30;;
46845;SDS011;33947;46.804;134.252;2023-05-21T02:54:25;170.43;;;18.20;;
46845;SDS011;33947;46.804;134.252;2023-05-21T02:57:30;208.20;;;19.05;;
46845;SDS011;33947;46.804;134.252;2023-05-21T03:00:34;195.98;;;18.25;;
46845;SDS011;33947;46.804;134.252;2023-05-21T03:03:44;164.68;;;18.75;;
46845;SDS011;33947;46.804;134.252;2023-05-21T03:06:48;187.45;;;19.83;;
46845;SDS011;33947;46.804;134.252;2023-05-21T03:09:59;157.48;;;17.35;;
46845;SDS011;33947;46.804;134.252;2023-05-21T03:13:06;178.48;;;18.55;;
46845;SDS011;33947;46.804;134.252;2023-05-21T03:16:11;212.57;;;32.45;;
46845;SDS011;33947;46.804;134.252;2023-05-21T03:19:16;173.82;;;20.60;;
46845;SDS011;33947;46.804;134.252;2023-05-21T03:22:21;171.38;;;18.80;;
46845;SDS011;33947;46.804;134.252;2023-05-21T03:25:26;163.13;;;16.95;;
46845;SDS011;33947;46.804;134.252;2023-05-21T03:28:31;171.98;;;21.45;;
46845;SDS011;33947;46.804;134.252;2023-05-21T03:31:39;170.98;;;16.30;;
46845;SDS011;33947;46.804;134.252;2023-05-21T03:34:45;181.48;;;26.20;;
46845;SDS011;33947;46.804;134.252;2023-05-21T03:37:52;175.65;;;16.38;;
46845;SDS011;33947;46.804;134.252;2023-05-21T03:40:57;187.05;;;20.70;;
46845;SDS011;33947;46.804;134.252;2023-05-21T03:44:03;177.30;;;21.70;;
46845;SDS011;33947;46.804;134.252;2023-05-21T03:47:31;164.00;;;17.02;;
46845;SDS011;33947;46.804;134.252;2023-05-21T03:50:36;172.48;;;18.60;;
46845;SDS011;33947;46.804;134.252;2023-05-21T03:53:41;166.73;;;18.27;;
46845;SDS011;33947;46.804;134.252;2023-05-21T03:56:45;140.75;;;17.23;;
46845;SDS011;33947;46.804;134.252;2023-05-21T03:59:50;165.43;;;19.85;;
46845;SDS011;33947;46.804;134.252;2023-05-21T04:02:57;168.23;;;19.15;;
46845;SDS011;33947;46.804;134.252;2023-05-21T04:06:08;154.15;;;17.40;;
46845;SDS011;33947;46.804;134.252;2023-05-21T04:09:19;146.80;;;15.48;;
46845;SDS011;33947;46.804;134.252;2023-05-21T04:12:26;178.20;;;18.45;;
46845;SDS011;33947;46.804;134.252;2023-05-21T04:15:32;169.10;;;17.92;;
46845;SDS011;33947;46.804;134.252;2023-05-21T04:18:41;157.65;;;18.30;;
46845;SDS011;33947;46.804;134.252;2023-05-21T04:21:50;148.70;;;18.23;;
46845;SDS011;33947;46.804;134.252;2023-05-21T04:24:55;149.68;;;16.80;;
46845;SDS011;33947;46.804;134.252;2023-05-21T04:28:08;146.32;;;16.48;;
46845;SDS011;33947;46.804;134.252;2023-05-21T04:31:12;137.20;;;18.53;;
46845;SDS011;33947;46.804;134.252;2023-05-21T04:34:19;160.38;;;18.35;;
46845;SDS011;33947;46.804;134.252;2023-05-21T04:37:24;123.75;;;15.57;;
46845;SDS011;33947;46.804;134.252;2023-05-21T04:40:30;124.57;;;12.90;;
46845;SDS011;33947;46.804;134.252;2023-05-21T04:43:42;129.85;;;17.05;;
46845;SDS011;33947;46.804;134.252;2023-05-21T04:46:49;139.35;;;14.95;;
46845;SDS011;33947;46.804;134.252;2023-05-21T04:49:59;138.55;;;14.68;;
46845;SDS011;33947;46.804;134.252;2023-05-21T04:53:05;132.90;;;16.88;;
46845;SDS011;33947;46.804;134.252;2023-05-21T04:59:14;136.82;;;16.02;;
46845;SDS011;33947;46.804;134.252;2023-05-21T05:02:20;159.07;;;15.93;;
46845;SDS011;33947;46.804;134.252;2023-05-21T05:05:26;142.88;;;15.93;;
46845;SDS011;33947;46.804;134.252;2023-05-21T05:08:30;162.38;;;19.50;;
46845;SDS011;33947;46.804;134.252;2023-05-21T05:11:34;131.45;;;14.60;;
46845;SDS011;33947;46.804;134.252;2023-05-21T05:14:39;142.82;;;15.50;;
46845;SDS011;33947;46.804;134.252;2023-05-21T05:17:53;174.40;;;27.27;;
46845;SDS011;33947;46.804;134.252;2023-05-21T05:20:59;172.95;;;25.58;;
46845;SDS011;33947;46.804;134.252;2023-05-21T05:24:04;181.52;;;38.17;;
46845;SDS011;33947;46.804;134.252;2023-05-21T05:27:12;190.52;;;28.33;;
46845;SDS011;33947;46.804;134.252;2023-05-21T05:30:18;157.35;;;17.85;;
46845;SDS011;33947;46.804;134.252;2023-05-21T05:33:26;156.90;;;18.75;;
46845;SDS011;33947;46.804;134.252;2023-05-21T05:36:30;152.20;;;17.42;;
46845;SDS011;33947;46.804;134.252;2023-05-21T05:39:37;177.02;;;20.55;;
46845;SDS011;33947;46.804;134.252;2023-05-21T05:42:42;166.47;;;20.43;;
46845;SDS011;33947;46.804;134.252;2023-05-21T05:45:50;150.32;;;17.10;;
46845;SDS011;33947;46.804;134.252;2023-05-21T05:48:56;168.65;;;16.45;;
46845;SDS011;33947;46.804;134.252;2023-05-21T05:52:01;171.07;;;19.30;;
46845;SDS011;33947;46.804;134.252;2023-05-21T05:55:06;168.13;;;18.13;;
46845;SDS011;33947;46.804;134.252;2023-05-21T05:58:13;148.93;;;15.07;;
46845;SDS011;33947;46.804;134.252;2023-05-21T06:01:29;206.88;;;39.05;;
46845;SDS011;33947;46.804;134.252;2023-05-21T06:04:34;378.70;;;124.25;;
46845;SDS011;33947;46.804;134.252;2023-05-21T06:07:40;220.45;;;33.10;;
46845;SDS011;33947;46.804;134.252;2023-05-21T06:10:44;151.20;;;20.33;;
46845;SDS011;33947;46.804;134.252;2023-05-21T06:13:51;128.30;;;14.15;;
46845;SDS011;33947;46.804;134.252;2023-05-21T06:16:56;178.65;;;37.72;;
46845;SDS011;33947;46.804;134.252;2023-05-21T06:20:02;130.10;;;16.45;;
46845;SDS011;33947;46.804;134.252;2023-05-21T06:23:09;144.02;;;22.23;;
46845;SDS011;33947;46.804;134.252;2023-05-21T06:26:14;129.45;;;16.45;;
46845;SDS011;33947;46.804;134.252;2023-05-21T06:29:23;127.97;;;14.43;;
46845;SDS011;33947;46.804;134.252;2023-05-21T06:32:27;98.78;;;11.00;;
46845;SDS011;33947;46.804;134.252;2023-05-21T06:35:33;117.70;;;12.60;;
46845;SDS011;33947;46.804;134.252;2023-05-21T06:38:40;124.45;;;15.98;;
46845;SDS011;33947;46.804;134.252;2023-05-21T06:41:46;106.47;;;13.05;;
46845;SDS011;33947;46.804;134.252;2023-05-21T06:45:17;114.80;;;11.60;;
46845;SDS011;33947;46.804;134.252;2023-05-21T06:48:25;113.35;;;13.82;;
46845;SDS011;33947;46.804;134.252;2023-05-21T06:51:29;124.43;;;13.88;;
46845;SDS011;33947;46.804;134.252;2023-05-21T06:54:34;85.85;;;10.90;;
46845;SDS011;33947;46.804;134.252;2023-05-21T06:57:39;110.13;;;10.75;;
46845;SDS011;33947;46.804;134.252;2023-05-21T07:00:47;104.25;;;11.07;;
46845;SDS011;33947;46.804;134.252;2023-05-21T07:04:58;91.38;;;10.38;;
46845;SDS011;33947;46.804;134.252;2023-05-21T07:08:05;250.13;;;105.40;;
46845;SDS011;33947;46.804;134.252;2023-05-21T07:11:19;108.35;;;13.35;;
46845;SDS011;33947;46.804;134.252;2023-05-21T07:14:24;101.25;;;15.00;;
46845;SDS011;33947;46.804;134.252;2023-05-21T07:17:37;104.13;;;17.52;;
46845;SDS011;33947;46.804;134.252;2023-05-21T07:20:50;97.32;;;11.63;;
46845;SDS011;33947;46.804;134.252;2023-05-21T07:24:02;122.57;;;14.00;;
46845;SDS011;33947;46.804;134.252;2023-05-21T07:27:12;85.43;;;11.55;;
46845;SDS011;33947;46.804;134.252;2023-05-21T07:30:29;90.10;;;11.18;;
46845;SDS011;33947;46.804;134.252;2023-05-21T07:33:39;89.15;;;11.55;;
46845;SDS011;33947;46.804;134.252;2023-05-21T07:36:51;80.72;;;11.38;;
46845;SDS011;33947;46.804;134.252;2023-05-21T07:39:57;89.88;;;13.27;;
46845;SDS011;33947;46.804;134.252;2023-05-21T07:43:06;78.57;;;9.13;;
46845;SDS011;33947;46.804;134.252;2023-05-21T07:46:12;73.50;;;8.85;;
46845;SDS011;33947;46.804;134.252;2023-05-21T07:49:24;61.65;;;7.15;;
46845;SDS011;33947;46.804;134.252;2023-05-21T07:52:29;51.35;;;7.00;;
46845;SDS011;33947;46.804;134.252;2023-05-21T07:55:34;53.92;;;8.60;;
46845;SDS011;33947;46.804;134.252;2023-05-21T07:58:48;69.55;;;7.95;;
46845;SDS011;33947;46.804;134.252;2023-05-21T08:01:52;70.20;;;11.20;;
46845;SDS011;33947;46.804;134.252;2023-05-21T08:05:10;55.00;;;7.95;;
46845;SDS011;33947;46.804;134.252;2023-05-21T08:08:15;63.65;;;7.60;;
46845;SDS011;33947;46.804;134.252;2023-05-21T08:11:22;92.18;;;11.20;;
46845;SDS011;33947;46.804;134.252;2023-05-21T08:14:27;69.60;;;12.02;;
46845;SDS011;33947;46.804;134.252;2023-05-21T08:17:31;86.00;;;12.10;;
46845;SDS011;33947;46.804;134.252;2023-05-21T08:20:36;73.22;;;8.18;;
46845;SDS011;33947;46.804;134.252;2023-05-21T08:23:42;60.65;;;8.27;;
46845;SDS011;33947;46.804;134.252;2023-05-21T08:26:47;42.22;;;6.88;;
46845;SDS011;33947;46.804;134.252;2023-05-21T08:29:53;60.65;;;7.80;;
46845;SDS011;33947;46.804;134.252;2023-05-21T08:32:58;62.88;;;8.10;;
46845;SDS011;33947;46.804;134.252;2023-05-21T08:36:07;42.40;;;6.30;;
46845;SDS011;33947;46.804;134.252;2023-05-21T08:39:20;43.95;;;6.20;;
46845;SDS011;33947;46.804;134.252;2023-05-21T08:45:41;39.00;;;5.60;;
46845;SDS011;33947;46.804;134.252;2023-05-21T08:48:54;56.63;;;8.85;;
46845;SDS011;33947;46.804;134.252;2023-05-21T08:51:59;53.22;;;7.50;;
46845;SDS011;33947;46.804;134.252;2023-05-21T08:55:05;55.38;;;6.90;;
46845;SDS011;33947;46.804;134.252;2023-05-21T08:58:12;46.17;;;7.82;;
46845;SDS011;33947;46.804;134.252;2023-05-21T09:01:18;52.38;;;8.30;;
46845;SDS011;33947;46.804;134.252;2023-05-21T09:04:33;53.40;;;7.78;;
46845;SDS011;33947;46.804;134.252;2023-05-21T09:07:46;58.40;;;10.95;;
46845;SDS011;33947;46.804;134.252;2023-05-21T09:11:06;62.08;;;12.63;;
46845;SDS011;33947;46.804;134.252;2023-05-21T09:14:21;59.55;;;10.38;;
46845;SDS011;33947;46.804;134.252;2023-05-21T09:17:36;42.72;;;7.30;;
46845;SDS011;33947;46.804;134.252;2023-05-21T09:21:26;41.83;;;5.60;;
46845;SDS011;33947;46.804;134.252;2023-05-21T09:24:43;38.75;;;6.28;;
46845;SDS011;33947;46.804;134.252;2023-05-21T09:27:48;42.55;;;7.65;;
46845;SDS011;33947;46.804;134.252;2023-05-21T09:30:53;51.58;;;7.28;;
46845;SDS011;33947;46.804;134.252;2023-05-21T09:33:59;61.20;;;8.95;;
46845;SDS011;33947;46.804;134.252;2023-05-21T09:37:06;41.40;;;7.07;;
46845;SDS011;33947;46.804;134.252;2023-05-21T09:40:29;44.80;;;8.23;;
46845;SDS011;33947;46.804;134.252;2023-05-21T09:43:35;39.30;;;6.70;;
46845;SDS011;33947;46.804;134.252;2023-05-21T09:46:40;36.65;;;6.20;;
46845;SDS011;33947;46.804;134.252;2023-05-21T09:49:44;52.92;;;8.73;;
46845;SDS011;33947;46.804;134.252;2023-05-21T09:52:49;41.50;;;11.10;;
46845;SDS011;33947;46.804;134.252;2023-05-21T09:55:58;42.30;;;8.75;;
46845;SDS011;33947;46.804;134.252;2023-05-21T10:02:22;64.55;;;14.52;;
46845;SDS011;33947;46.804;134.252;2023-05-21T10:05:29;59.28;;;13.82;;
46845;SDS011;33947;46.804;134.252;2023-05-21T10:08:34;53.13;;;11.43;;
46845;SDS011;33947;46.804;134.252;2023-05-21T10:11:40;52.17;;;10.85;;
46845;SDS011;33947;46.804;134.252;2023-05-21T10:14:48;61.80;;;12.75;;
46845;SDS011;33947;46.804;134.252;2023-05-21T10:17:56;64.97;;;13.00;;
46845;SDS011;33947;46.804;134.252;2023-05-21T10:21:05;59.55;;;13.80;;
46845;SDS011;33947;46.804;134.252;2023-05-21T10:24:11;49.05;;;13.48;;
46845;SDS011;33947;46.804;134.252;2023-05-21T10:27:16;61.25;;;13.65;;
46845;SDS011;33947;46.804;134.252;2023-05-21T10:30:21;63.20;;;16.67;;
46845;SDS011;33947;46.804;134.252;2023-05-21T10:33:27;73.03;;;15.88;;
46845;SDS011;33947;46.804;134.252;2023-05-21T10:36:32;64.38;;;12.75;;
46845;SDS011;33947;46.804;134.252;2023-05-21T10:39:39;75.13;;;15.85;;
46845;SDS011;33947;46.804;134.252;2023-05-21T10:49:37;60.47;;;12.70;;
46845;SDS011;33947;46.804;134.252;2023-05-21T10:59:43;61.88;;;14.70;;
46845;SDS011;33947;46.804;134.252;2023-05-21T11:02:50;66.65;;;16.90;;
46845;SDS011;33947;46.804;134.252;2023-05-21T11:05:55;68.38;;;16.85;;
46845;SDS011;33947;46.804;134.252;2023-05-21T11:09:21;76.25;;;18.65;;
46845;SDS011;33947;46.804;134.252;2023-05-21T11:12:24;69.70;;;20.55;;
46845;SDS011;33947;46.804;134.252;2023-05-21T11:15:29;61.42;;;16.88;;
46845;SDS011;33947;46.804;134.252;2023-05-21T11:21:40;74.45;;;16.83;;
46845;SDS011;33947;46.804;134.252;2023-05-21T11:24:45;58.85;;;15.98;;
46845;SDS011;33947;46.804;134.252;2023-05-21T11:27:52;72.63;;;18.13;;
46845;SDS011;33947;46.804;134.252;2023-05-21T11:34:25;67.47;;;15.50;;
46845;SDS011;33947;46.804;134.252;2023-05-21T11:37:39;74.10;;;21.35;;
46845;SDS011;33947;46.804;134.252;2023-05-21T11:40:49;60.90;;;18.90;;
46845;SDS011;33947;46.804;134.252;2023-05-21T11:43:59;53.83;;;17.85;;
46845;SDS011;33947;46.804;134.252;2023-05-21T11:47:04;65.72;;;18.15;;
46845;SDS011;33947;46.804;134.252;2023-05-21T11:50:12;84.35;;;22.95;;
46845;SDS011;33947;46.804;134.252;2023-05-21T11:53:19;61.72;;;19.17;;
46845;SDS011;33947;46.804;134.252;2023-05-21T11:56:25;76.85;;;21.13;;
46845;SDS011;33947;46.804;134.252;2023-05-21T11:59:34;70.85;;;19.88;;
46845;SDS011;33947;46.804;134.252;2023-05-21T12:03:00;57.47;;;18.17;;
46845;SDS011;33947;46.804;134.252;2023-05-21T12:06:04;75.43;;;19.92;;
46845;SDS011;33947;46.804;134.252;2023-05-21T12:09:09;63.83;;;20.90;;
46845;SDS011;33947;46.804;134.252;2023-05-21T12:12:14;62.67;;;18.80;;
46845;SDS011;33947;46.804;134.252;2023-05-21T12:15:26;57.92;;;14.77;;
46845;SDS011;33947;46.804;134.252;2023-05-21T12:18:31;68.07;;;14.52;;
46845;SDS011;33947;46.804;134.252;2023-05-21T12:21:35;58.70;;;12.27;;
46845;SDS011;33947;46.804;134.252;2023-05-21T12:24:40;49.80;;;11.90;;
46845;SDS011;33947;46.804;134.252;2023-05-21T12:27:50;54.08;;;11.60;;
46845;SDS011;33947;46.804;134.252;2023-05-21T12:31:05;53.30;;;10.40;;
46845;SDS011;33947;46.804;134.252;2023-05-21T12:34:10;41.08;;;11.80;;
46845;SDS011;33947;46.804;134.252;2023-05-21T12:40:33;51.17;;;11.57;;
46845;SDS011;33947;46.804;134.252;2023-05-21T12:43:50;41.38;;;8.55;;
46845;SDS011;33947;46.804;134.252;2023-05-21T12:46:54;61.70;;;9.80;;
46845;SDS011;33947;46.804;134.252;2023-05-21T12:50:00;62.72;;;13.98;;
46845;SDS011;33947;46.804;134.252;2023-05-21T12:53:07;63.08;;;9.68;;
46845;SDS011;33947;46.804;134.252;2023-05-21T12:56:17;62.50;;;9.82;;
46845;SDS011;33947;46.804;134.252;2023-05-21T12:59:21;69.15;;;11.38;;
46845;SDS011;33947;46.804;134.252;2023-05-21T13:05:44;85.45;;;10.60;;
46845;SDS011;33947;46.804;134.252;2023-05-21T13:08:50;75.78;;;10.65;;
46845;SDS011;33947;46.804;134.252;2023-05-21T13:12:01;69.30;;;10.13;;
46845;SDS011;33947;46.804;134.252;2023-05-21T13:15:08;75.57;;;10.93;;
46845;SDS011;33947;46.804;134.252;2023-05-21T13:18:13;85.80;;;9.97;;
46845;SDS011;33947;46.804;134.252;2023-05-21T13:21:18;86.75;;;10.15;;
46845;SDS011;33947;46.804;134.252;2023-05-21T13:24:34;93.07;;;12.50;;
46845;SDS011;33947;46.804;134.252;2023-05-21T13:27:42;82.85;;;11.48;;
46845;SDS011;33947;46.804;134.252;2023-05-21T13:30:49;75.03;;;10.27;;
46845;SDS011;33947;46.804;134.252;2023-05-21T13:33:58;69.82;;;9.52;;
46845;SDS011;33947;46.804;134.252;2023-05-21T13:37:03;83.50;;;10.00;;
46845;SDS011;33947;46.804;134.252;2023-05-21T13:40:11;73.07;;;8.95;;
46845;SDS011;33947;46.804;134.252;2023-05-21T13:43:21;88.28;;;11.38;;
46845;SDS011;33947;46.804;134.252;2023-05-21T13:46:28;94.32;;;9.88;;
46845;SDS011;33947;46.804;134.252;2023-05-21T13:49:33;64.60;;;10.77;;
46845;SDS011;33947;46.804;134.252;2023-05-21T13:52:42;77.28;;;9.63;;
46845;SDS011;33947;46.804;134.252;2023-05-21T13:55:48;85.88;;;12.15;;
46845;SDS011;33947;46.804;134.252;2023-05-21T13:58:54;90.43;;;12.07;;
46845;SDS011;33947;46.804;134.252;2023-05-21T14:02:00;78.57;;;10.50;;
46845;SDS011;33947;46.804;134.252;2023-05-21T14:05:24;86.38;;;9.85;;
46845;SDS011;33947;46.804;134.252;2023-05-21T14:08:31;69.90;;;8.20;;
46845;SDS011;33947;46.804;134.252;2023-05-21T14:11:35;73.32;;;11.68;;
46845;SDS011;33947;46.804;134.252;2023-05-21T14:14:51;84.28;;;11.90;;
46845;SDS011;33947;46.804;134.252;2023-05-21T14:17:56;92.22;;;11.68;;
46845;SDS011;33947;46.804;134.252;2023-05-21T14:21:08;83.43;;;10.38;;
46845;SDS011;33947;46.804;134.252;2023-05-21T14:24:15;66.22;;;9.05;;
46845;SDS011;33947;46.804;134.252;2023-05-21T14:27:26;75.40;;;10.00;;
46845;SDS011;33947;46.804;134.252;2023-05-21T14:30:30;74.07;;;11.55;;
46845;SDS011;33947;46.804;134.252;2023-05-21T14:33:39;80.95;;;8.63;;
46845;SDS011;33947;46.804;134.252;2023-05-21T14:36:53;86.43;;;11.27;;
46845;SDS011;33947;46.804;134.252;2023-05-21T14:39:58;73.45;;;10.20;;
46845;SDS011;33947;46.804;134.252;2023-05-21T14:43:04;77.03;;;10.45;;
46845;SDS011;33947;46.804;134.252;2023-05-21T14:46:13;76.05;;;9.82;;
46845;SDS011;33947;46.804;134.252;2023-05-21T14:49:18;67.63;;;10.60;;
46845;SDS011;33947;46.804;134.252;2023-05-21T14:52:35;71.47;;;10.23;;
46845;SDS011;33947;46.804;134.252;2023-05-21T14:55:41;84.85;;;11.15;;
46845;SDS011;33947;46.804;134.252;2023-05-21T14:58:48;62.42;;;9.23;;
46845;SDS011;33947;46.804;134.252;2023-05-21T15:01:52;64.60;;;8.68;;
46845;SDS011;33947;46.804;134.252;2023-05-21T15:05:02;63.50;;;8.65;;
46845;SDS011;33947;46.804;134.252;2023-05-21T15:08:06;68.45;;;7.25;;
46845;SDS011;33947;46.804;134.252;2023-05-21T15:11:12;53.55;;;7.72;;
46845;SDS011;33947;46.804;134.252;2023-05-21T15:14:18;61.67;;;7.93;;
46845;SDS011;33947;46.804;134.252;2023-05-21T15:17:28;59.10;;;7.07;;
46845;SDS011;33947;46.804;134.252;2023-05-21T15:20:32;58.80;;;8.07;;
46845;SDS011;33947;46.804;134.252;2023-05-21T15:23:40;59.85;;;7.47;;
46845;SDS011;33947;46.804;134.252;2023-05-21T15:26:50;69.45;;;8.50;;
46845;SDS011;33947;46.804;134.252;2023-05-21T15:29:54;37.28;;;5.95;;
46845;SDS011;33947;46.804;134.252;2023-05-21T15:32:59;52.38;;;7.00;;
46845;SDS011;33947;46.804;134.252;2023-05-21T15:36:03;67.10;;;7.05;;
46845;SDS011;33947;46.804;134.252;2023-05-21T15:39:08;47.50;;;7.05;;
46845;SDS011;33947;46.804;134.252;2023-05-21T15:42:12;47.20;;;6.20;;
46845;SDS011;33947;46.804;134.252;2023-05-21T15:45:16;50.10;;;7.55;;
46845;SDS011;33947;46.804;134.252;2023-05-21T15:48:20;47.47;;;6.57;;
46845;SDS011;33947;46.804;134.252;2023-05-21T15:51:25;35.17;;;5.43;;
46845;SDS011;33947;46.804;134.252;2023-05-21T15:54:29;40.83;;;6.68;;
46845;SDS011;33947;46.804;134.252;2023-05-21T15:57:33;39.47;;;6.03;;
46845;SDS011;33947;46.804;134.252;2023-05-21T16:00:39;40.78;;;4.72;;
46845;SDS011;33947;46.804;134.252;2023-05-21T16:03:43;31.75;;;4.65;;
46845;SDS011;33947;46.804;134.252;2023-05-21T16:06:50;39.80;;;4.75;;
46845;SDS011;33947;46.804;134.252;2023-05-21T16:09:55;26.13;;;4.28;;
46845;SDS011;33947;46.804;134.252;2023-05-21T16:12:59;34.40;;;4.55;;
46845;SDS011;33947;46.804;134.252;2023-05-21T16:16:03;18.27;;;3.20;;
46845;SDS011;33947;46.804;134.252;2023-05-21T16:19:10;18.55;;;3.13;;
46845;SDS011;33947;46.804;134.252;2023-05-21T16:22:15;11.43;;;2.60;;
46845;SDS011;33947;46.804;134.252;2023-05-21T16:25:19;15.65;;;3.50;;
46845;SDS011;33947;46.804;134.252;2023-05-21T16:28:24;14.43;;;2.80;;
46845;SDS011;33947;46.804;134.252;2023-05-21T16:31:29;28.63;;;3.85;;
46845;SDS011;33947;46.804;134.252;2023-05-21T16:34:33;27.83;;;2.95;;
46845;SDS011;33947;46.804;134.252;2023-05-21T16:37:38;18.50;;;2.72;;
46845;SDS011;33947;46.804;134.252;2023-05-21T16:40:42;18.20;;;2.53;;
46845;SDS011;33947;46.804;134.252;2023-05-21T16:43:47;17.57;;;3.83;;
46845;SDS011;33947;46.804;134.252;2023-05-21T16:46:51;17.30;;;3.33;;
46845;SDS011;33947;46.804;134.252;2023-05-21T16:49:56;12.95;;;3.00;;
46845;SDS011;33947;46.804;134.252;2023-05-21T16:53:00;12.35;;;2.33;;
46845;SDS011;33947;46.804;134.252;2023-05-21T16:56:05;9.68;;;2.70;;
46845;SDS011;33947;46.804;134.252;2023-05-21T16:59:09;19.33;;;2.67;;
46845;SDS011;33947;46.804;134.252;2023-05-21T17:02:13;15.75;;;3.35;;
46845;SDS011;33947;46.804;134.252;2023-05-21T17:05:17;16.25;;;2.83;;
46845;SDS011;33947;46.804;134.252;2023-05-21T17:08:21;9.43;;;2.17;;
46845;SDS011;33947;46.804;134.252;2023-05-21T17:11:25;11.73;;;2.05;;
46845;SDS011;33947;46.804;134.252;2023-05-21T17:14:30;17.63;;;3.35;;
46845;SDS011;33947;46.804;134.252;2023-05-21T17:17:36;15.70;;;2.28;;
46845;SDS011;33947;46.804;134.252;2023-05-21T17:20:40;9.95;;;2.55;;
46845;SDS011;33947;46.804;134.252;2023-05-21T17:23:45;10.48;;;2.10;;
46845;SDS011;33947;46.804;134.252;2023-05-21T17:26:51;10.43;;;2.60;;
46845;SDS011;33947;46.804;134.252;2023-05-21T17:29:55;10.85;;;2.25;;
46845;SDS011;33947;46.804;134.252;2023-05-21T17:32:59;13.93;;;2.25;;
46845;SDS011;33947;46.804;134.252;2023-05-21T17:36:06;14.18;;;2.15;;
46845;SDS011;33947;46.804;134.252;2023-05-21T17:39:10;12.60;;;2.20;;
46845;SDS011;33947;46.804;134.252;2023-05-21T17:42:15;11.80;;;1.83;;
46845;SDS011;33947;46.804;134.252;2023-05-21T17:45:19;8.73;;;2.60;;
46845;SDS011;33947;46.804;134.252;2023-05-21T17:48:23;15.52;;;1.95;;
46845;SDS011;33947;46.804;134.252;2023-05-21T17:51:28;10.85;;;2.97;;
46845;SDS011;33947;46.804;134.252;2023-05-21T17:54:33;11.68;;;2.78;;
46845;SDS011;33947;46.804;134.252;2023-05-21T17:57:37;11.95;;;1.73;;
46845;SDS011;33947;46.804;134.252;2023-05-21T18:00:41;14.80;;;2.10;;
46845;SDS011;33947;46.804;134.252;2023-05-21T18:03:45;12.98;;;1.83;;
46845;SDS011;33947;46.804;134.252;2023-05-21T18:06:49;14.07;;;3.03;;
46845;SDS011;33947;46.804;134.252;2023-05-21T18:09:54;16.42;;;1.90;;
46845;SDS011;33947;46.804;134.252;2023-05-21T18:12:58;11.63;;;1.77;;
46845;SDS011;33947;46.804;134.252;2023-05-21T18:16:03;9.27;;;1.88;;
46845;SDS011;33947;46.804;134.252;2023-05-21T18:19:07;9.15;;;1.55;;
46845;SDS011;33947;46.804;134.252;2023-05-21T18:22:11;7.82;;;1.77;;
46845;SDS011;33947;46.804;134.252;2023-05-21T18:25:15;11.82;;;2.67;;